Terminal Aerodrome Forecast
Issued by NWS Tampa Bay Area, FL

Home | Current Version | Previous Version | Text Only | Print | Product List | Glossary On
Versions: 1 2 3 4 5 6 7 8 9 10 11 12 13 14 15 16 17 18 19 20
000
FTUS42 KTBW 261700 RRA
TAFFMY
TAF
KFMY 261741Z 2618/2718 34012KT P6SM BKN020 OVC100
      TEMPO 2618/2621 SCT020 BKN100
     FM262100 34012KT P6SM FEW025 SCT100 SCT250
     FM270000 35006KT P6SM SKC
     FM271600 01012KT P6SM SKC=

USA.gov is the U.S. government's official web portal to all federal, state and local government web resources and services.